Time;durP1;ratioP1;P1;durP2;ratioP2;P2;SDS_P1;SDS_P2;PMS_P1;PMS_P2;Temp;Humidity;BMP_temperature;BMP_pressure;BME280_temperature;BME280_humidity;BME280_pressure;Samples;Min_cycle;Max_cycle;Signal;HPM_P1;HPM_P2
2020/12/02 00:00:01;;;;;;;70.80;25.63;;;2.90;99.90;;;;;;5047590;28;20037;-74
2020/12/02 00:02:31;;;;;;;62.05;25.48;;;3.00;99.90;;;;;;5081757;28;20048;-73
2020/12/02 00:05:02;;;;;;;71.10;25.25;;;3.10;99.90;;;;;;5067381;28;20071;-73
2020/12/02 00:07:30;;;;;;;66.90;24.85;;;3.10;99.90;;;;;;5081105;28;20044;-73
2020/12/02 00:09:57;;;;;;;68.55;26.80;;;3.00;99.90;;;;;;5064230;28;20048;-73
2020/12/02 00:12:24;;;;;;;58.95;23.58;;;3.00;99.90;;;;;;5074701;28;20064;-73
2020/12/02 00:14:51;;;;;;;50.97;23.02;;;3.00;99.90;;;;;;5083996;28;20488;-73
2020/12/02 00:17:20;;;;;;;64.15;23.38;;;3.00;99.90;;;;;;5078410;28;20232;-73
2020/12/02 00:19:48;;;;;;;49.97;22.65;;;3.00;99.90;;;;;;5074316;28;20045;-73
2020/12/02 00:22:20;;;;;;;51.45;22.27;;;3.00;99.90;;;;;;5079614;28;20058;-73
2020/12/02 00:24:48;;;;;;;61.47;23.08;;;3.00;99.90;;;;;;5083172;28;20687;-73
2020/12/02 00:27:19;;;;;;;44.35;21.02;;;2.90;99.90;;;;;;5074023;28;20131;-73
2020/12/02 00:29:46;;;;;;;41.30;21.00;;;2.90;99.90;;;;;;5082815;28;20076;-72
2020/12/02 00:32:25;;;;;;;42.90;22.00;;;3.00;99.90;;;;;;5082827;28;20508;-74
2020/12/02 00:34:52;;;;;;;47.38;23.10;;;3.10;99.90;;;;;;5083769;28;20586;-74
2020/12/02 00:37:18;;;;;;;36.00;19.63;;;3.00;99.90;;;;;;5079012;28;20583;-73
2020/12/02 00:39:45;;;;;;;23.70;16.02;;;3.00;99.90;;;;;;5084130;28;20504;-73
2020/12/02 00:42:12;;;;;;;25.33;15.65;;;2.90;99.90;;;;;;5067589;28;20255;-72
2020/12/02 00:44:38;;;;;;;24.65;15.90;;;2.80;99.90;;;;;;5067735;28;20052;-73
2020/12/02 00:47:19;;;;;;;31.13;16.17;;;2.80;99.90;;;;;;5068415;28;20059;-73
2020/12/02 00:49:53;;;;;;;33.08;18.20;;;2.90;99.90;;;;;;5066288;28;20694;-73
2020/12/02 00:52:20;;;;;;;36.05;18.13;;;3.00;99.90;;;;;;5082696;28;20110;-74
2020/12/02 00:54:46;;;;;;;37.03;20.25;;;3.10;99.90;;;;;;5081266;28;20105;-74
2020/12/02 00:57:24;;;;;;;36.42;19.08;;;3.10;99.90;;;;;;5081797;28;20101;-73
2020/12/02 00:59:54;;;;;;;30.38;17.40;;;3.20;99.90;;;;;;5075717;28;20064;-73
2020/12/02 01:02:39;;;;;;;30.38;18.77;;;3.20;99.90;;;;;;5076484;28;20052;-74
2020/12/02 01:05:09;;;;;;;34.58;20.70;;;3.20;99.90;;;;;;5080514;28;20346;-73
2020/12/02 01:07:39;;;;;;;24.88;16.20;;;3.30;99.90;;;;;;5078995;28;20044;-73
2020/12/02 01:10:06;;;;;;;23.65;16.13;;;3.30;99.90;;;;;;5078007;28;20044;-72
2020/12/02 01:12:32;;;;;;;27.40;17.85;;;3.20;99.90;;;;;;5077459;28;20528;-73
2020/12/02 01:15:00;;;;;;;25.65;16.15;;;3.30;99.90;;;;;;5086217;28;20564;-73
2020/12/02 01:17:26;;;;;;;30.35;17.98;;;3.20;99.90;;;;;;5080076;28;20066;-73
2020/12/02 01:19:53;;;;;;;27.23;17.40;;;3.30;99.90;;;;;;5087342;28;20067;-73
2020/12/02 01:22:29;;;;;;;28.15;17.73;;;3.30;99.90;;;;;;5066598;28;20048;-73
2020/12/02 01:25:18;;;;;;;26.05;15.27;;;3.40;99.90;;;;;;5066153;28;20068;-73
2020/12/02 01:27:52;;;;;;;21.17;14.23;;;3.50;99.90;;;;;;5075390;28;20076;-73
2020/12/02 01:30:20;;;;;;;24.88;15.63;;;3.60;99.90;;;;;;5083591;28;20074;-74
2020/12/02 01:32:46;;;;;;;24.20;15.30;;;3.40;99.90;;;;;;5085870;28;20496;-73
2020/12/02 01:35:20;;;;;;;21.92;15.15;;;3.30;99.90;;;;;;5073046;28;20052;-73
2020/12/02 01:37:51;;;;;;;25.63;15.38;;;3.50;99.90;;;;;;5085482;28;20060;-73
2020/12/02 01:40:32;;;;;;;33.22;19.60;;;3.50;99.90;;;;;;5078483;28;20067;-73
2020/12/02 01:43:02;;;;;;;32.38;17.67;;;3.50;99.90;;;;;;5089918;28;20418;-73
2020/12/02 01:45:38;;;;;;;33.88;19.33;;;3.60;99.90;;;;;;5081060;28;20040;-74
2020/12/02 01:48:10;;;;;;;28.88;16.98;;;3.70;99.90;;;;;;5079556;28;20044;-73
2020/12/02 01:50:58;;;;;;;27.40;15.38;;;3.70;99.90;;;;;;5067444;28;20040;-72
2020/12/02 01:53:50;;;;;;;26.20;14.68;;;3.50;99.90;;;;;;5085796;28;20200;-72
2020/12/02 01:56:32;;;;;;;28.90;15.60;;;3.40;99.90;;;;;;5080494;28;20136;-73
2020/12/02 01:59:18;;;;;;;37.30;16.30;;;3.40;99.90;;;;;;5057590;28;20045;-72
2020/12/02 02:02:20;;;;;;;33.45;16.65;;;3.50;99.90;;;;;;5082202;28;20052;-73
2020/12/02 02:04:50;;;;;;;38.83;18.13;;;3.30;99.90;;;;;;5081326;28;20786;-73
2020/12/02 02:07:20;;;;;;;39.60;17.13;;;3.40;99.90;;;;;;5075636;28;20144;-73
2020/12/02 02:09:59;;;;;;;40.42;17.63;;;3.40;99.90;;;;;;5085479;28;20040;-73
2020/12/02 02:13:03;;;;;;;35.92;17.83;;;3.30;99.90;;;;;;5072309;28;20139;-73
2020/12/02 02:15:40;;;;;;;41.75;17.02;;;3.30;99.90;;;;;;5070408;28;20066;-73
2020/12/02 02:18:15;;;;;;;38.13;17.83;;;3.30;99.90;;;;;;5079918;28;20040;-72
2020/12/02 02:20:47;;;;;;;44.15;19.02;;;3.30;99.90;;;;;;5070216;28;20047;-73
2020/12/02 02:23:15;;;;;;;42.53;16.95;;;3.30;99.90;;;;;;5084492;28;20044;-73
2020/12/02 02:26:06;;;;;;;43.10;18.75;;;3.20;99.90;;;;;;5074121;28;20061;-73
2020/12/02 02:28:35;;;;;;;45.05;18.85;;;3.30;99.90;;;;;;5078700;28;20059;-73
2020/12/02 02:31:10;;;;;;;59.97;21.10;;;3.40;99.90;;;;;;5063979;28;20586;-73
2020/12/02 02:33:36;;;;;;;49.63;22.17;;;3.40;99.90;;;;;;5085990;28;20048;-73
2020/12/02 02:36:03;;;;;;;43.28;19.23;;;3.30;99.90;;;;;;5063833;28;20128;-73
2020/12/02 02:38:29;;;;;;;51.92;20.75;;;3.40;99.90;;;;;;5068193;28;20052;-73
2020/12/02 02:40:55;;;;;;;50.83;20.25;;;3.30;99.90;;;;;;5073646;28;20044;-73
2020/12/02 02:43:21;;;;;;;51.85;19.85;;;3.40;99.90;;;;;;5065470;28;20063;-73
2020/12/02 02:45:48;;;;;;;45.88;19.10;;;3.40;99.90;;;;;;5068244;28;20059;-73
2020/12/02 02:48:14;;;;;;;40.40;20.13;;;3.40;99.90;;;;;;5084382;28;20048;-73
2020/12/02 02:50:41;;;;;;;54.63;21.15;;;3.40;99.90;;;;;;5073929;28;20528;-74
2020/12/02 02:53:20;;;;;;;53.63;20.63;;;3.30;99.90;;;;;;5082633;28;20413;-73
2020/12/02 02:55:49;;;;;;;50.63;20.15;;;3.40;99.90;;;;;;5057163;28;20044;-73
2020/12/02 02:58:16;;;;;;;53.20;22.95;;;3.50;99.90;;;;;;5088152;28;20558;-73
2020/12/02 03:00:43;;;;;;;56.63;21.77;;;3.50;99.90;;;;;;5089306;28;20048;-73
2020/12/02 03:03:12;;;;;;;48.45;21.63;;;3.50;99.90;;;;;;5082149;28;20052;-74
2020/12/02 03:05:39;;;;;;;52.08;22.00;;;3.50;99.90;;;;;;5075087;28;20040;-74
2020/12/02 03:08:09;;;;;;;48.80;21.70;;;3.50;99.90;;;;;;5078863;28;20059;-74
2020/12/02 03:10:43;;;;;;;52.13;23.10;;;3.50;99.90;;;;;;5085379;28;20087;-73
2020/12/02 03:13:25;;;;;;;50.47;21.70;;;3.50;99.90;;;;;;5078078;28;20051;-73
2020/12/02 03:15:52;;;;;;;57.78;21.95;;;3.40;99.90;;;;;;5081024;28;20048;-74
2020/12/02 03:18:22;;;;;;;56.10;24.08;;;3.30;99.90;;;;;;5055694;28;20048;-72
2020/12/02 03:20:55;;;;;;;58.35;22.33;;;3.10;99.90;;;;;;5069484;28;20079;-73
2020/12/02 03:23:22;;;;;;;66.18;23.50;;;3.20;99.90;;;;;;5083478;28;20556;-73
2020/12/02 03:25:49;;;;;;;60.10;22.35;;;3.30;99.90;;;;;;5066922;28;20215;-73
2020/12/02 03:28:16;;;;;;;75.50;25.08;;;3.30;99.90;;;;;;5086476;28;20134;-73
2020/12/02 03:30:44;;;;;;;67.50;23.10;;;3.40;99.90;;;;;;5065285;28;20093;-73
2020/12/02 03:33:13;;;;;;;71.68;25.33;;;3.40;99.90;;;;;;5083747;28;20067;-73
2020/12/02 03:35:40;;;;;;;61.22;23.02;;;3.50;99.90;;;;;;5080982;28;20389;-73
2020/12/02 03:38:06;;;;;;;71.47;24.67;;;3.40;99.90;;;;;;5082621;28;20131;-73
2020/12/02 03:40:32;;;;;;;73.15;24.52;;;3.20;99.90;;;;;;5072488;28;20516;-73
2020/12/02 03:42:59;;;;;;;74.85;24.00;;;3.40;99.90;;;;;;5079995;28;20534;-73
2020/12/02 03:45:25;;;;;;;75.25;25.50;;;3.30;99.90;;;;;;5083583;28;20051;-74
2020/12/02 03:47:52;;;;;;;69.88;24.23;;;3.30;99.90;;;;;;5079910;28;20058;-73
2020/12/02 03:50:18;;;;;;;73.43;24.83;;;3.40;99.90;;;;;;5063107;28;20048;-73
2020/12/02 03:52:44;;;;;;;83.25;23.50;;;3.50;99.90;;;;;;5079635;28;20060;-73
2020/12/02 03:55:11;;;;;;;71.22;25.15;;;3.60;99.90;;;;;;5083844;28;20501;-74
2020/12/02 03:57:37;;;;;;;89.97;27.52;;;3.40;99.90;;;;;;5083472;28;20462;-73
2020/12/02 04:00:08;;;;;;;79.22;24.52;;;3.40;99.90;;;;;;5086233;28;20048;-73
2020/12/02 04:02:35;;;;;;;81.05;25.15;;;3.50;99.90;;;;;;5080493;28;20043;-73
2020/12/02 04:05:01;;;;;;;82.15;26.70;;;3.50;99.90;;;;;;5065828;28;20059;-73
2020/12/02 04:07:27;;;;;;;79.10;26.63;;;3.50;99.90;;;;;;5070904;28;20044;-73
2020/12/02 04:09:54;;;;;;;96.85;27.35;;;3.50;99.90;;;;;;5066176;28;20044;-73
2020/12/02 04:12:20;;;;;;;97.32;28.27;;;3.60;99.90;;;;;;5083362;28;20117;-73
2020/12/02 04:14:46;;;;;;;99.05;28.88;;;3.30;99.90;;;;;;5082468;28;20051;-73
2020/12/02 04:17:12;;;;;;;106.05;35.47;;;3.30;99.90;;;;;;5065669;28;20135;-73
2020/12/02 04:19:39;;;;;;;108.32;32.78;;;3.30;99.90;;;;;;5075320;28;20059;-73
2020/12/02 04:22:05;;;;;;;101.50;27.70;;;3.30;99.90;;;;;;5073496;28;20452;-73
2020/12/02 04:24:32;;;;;;;73.20;21.08;;;3.20;99.90;;;;;;5084375;28;20056;-73
2020/12/02 04:26:58;;;;;;;88.65;23.40;;;3.10;99.90;;;;;;5066221;28;20606;-73
2020/12/02 04:29:24;;;;;;;96.55;27.45;;;3.10;99.90;;;;;;5050336;28;20105;-73
2020/12/02 04:31:51;;;;;;;94.82;24.50;;;3.00;99.90;;;;;;5079208;28;20036;-73
2020/12/02 04:34:17;;;;;;;89.93;24.65;;;3.00;99.90;;;;;;5084110;28;20055;-74
2020/12/02 04:36:48;;;;;;;78.93;23.75;;;3.00;99.90;;;;;;5078241;28;20048;-74
2020/12/02 04:39:16;;;;;;;64.53;20.77;;;3.00;99.90;;;;;;5065761;28;20077;-74
2020/12/02 04:41:43;;;;;;;40.22;15.23;;;3.10;99.90;;;;;;5080639;28;20058;-74
2020/12/02 04:44:10;;;;;;;36.67;16.50;;;3.00;99.90;;;;;;5046644;28;20053;-73
2020/12/02 04:46:38;;;;;;;41.20;17.10;;;3.00;99.90;;;;;;5072016;28;20059;-73
2020/12/02 04:49:13;;;;;;;30.90;15.80;;;3.00;99.90;;;;;;5066533;28;20526;-73
2020/12/02 04:51:41;;;;;;;37.78;16.45;;;2.90;99.90;;;;;;5079675;28;20048;-74
2020/12/02 04:54:08;;;;;;;33.22;15.77;;;3.00;99.90;;;;;;5082483;28;20055;-73
2020/12/02 04:56:38;;;;;;;31.88;15.90;;;3.00;99.90;;;;;;5082226;28;20048;-74
2020/12/02 04:59:04;;;;;;;25.58;13.15;;;3.10;99.90;;;;;;5084261;28;20044;-74
2020/12/02 05:01:33;;;;;;;28.55;13.52;;;3.00;99.90;;;;;;5082201;28;20056;-74
2020/12/02 05:04:01;;;;;;;25.20;13.70;;;2.80;99.90;;;;;;5066031;28;20055;-73
2020/12/02 05:06:33;;;;;;;29.20;15.60;;;2.90;99.90;;;;;;5069992;28;20052;-74
2020/12/02 05:09:21;;;;;;;25.27;13.80;;;2.90;99.90;;;;;;5079504;28;20782;-73
2020/12/02 05:12:24;;;;;;;27.10;13.48;;;2.90;99.90;;;;;;5069353;28;20527;-73
2020/12/02 05:14:50;;;;;;;27.10;14.25;;;3.00;99.90;;;;;;5066570;28;20044;-73
2020/12/02 05:17:17;;;;;;;24.40;14.70;;;2.90;99.90;;;;;;5064810;28;20048;-74
2020/12/02 05:20:07;;;;;;;35.83;16.08;;;2.90;99.90;;;;;;5083276;28;20044;-74
2020/12/02 05:22:36;;;;;;;27.40;16.75;;;3.00;99.90;;;;;;5077551;28;20044;-73
2020/12/02 05:25:05;;;;;;;28.75;17.42;;;3.10;99.90;;;;;;5081286;28;20058;-74
2020/12/02 05:27:35;;;;;;;32.67;17.27;;;3.00;99.90;;;;;;5079080;28;20051;-74
2020/12/02 05:30:28;;;;;;;30.52;16.95;;;3.00;99.90;;;;;;5096042;28;20052;-74
2020/12/02 05:33:00;;;;;;;29.45;16.92;;;3.00;99.90;;;;;;5078818;28;20051;-73
2020/12/02 05:35:30;;;;;;;30.65;17.42;;;3.20;99.90;;;;;;5082248;28;20044;-74
2020/12/02 05:37:57;;;;;;;32.05;18.85;;;3.10;99.90;;;;;;5072217;28;20045;-74
2020/12/02 05:40:24;;;;;;;31.38;17.45;;;3.10;99.90;;;;;;5068977;28;20271;-74
2020/12/02 05:42:59;;;;;;;34.72;17.95;;;3.10;99.90;;;;;;5064323;28;20056;-74
2020/12/02 05:45:35;;;;;;;36.72;18.55;;;3.10;99.90;;;;;;5065985;28;20052;-74
2020/12/02 05:48:04;;;;;;;35.20;18.55;;;3.10;99.90;;;;;;5066374;28;20135;-74
2020/12/02 05:50:31;;;;;;;39.03;19.05;;;3.10;99.90;;;;;;5052377;28;20087;-74
2020/12/02 05:53:24;;;;;;;38.80;20.48;;;3.10;99.90;;;;;;5080426;28;20052;-74
2020/12/02 05:55:51;;;;;;;37.45;20.00;;;3.10;99.90;;;;;;5082157;28;20527;-74
2020/12/02 05:58:20;;;;;;;37.90;19.48;;;3.00;99.90;;;;;;5087402;28;20053;-74
2020/12/02 06:00:47;;;;;;;34.78;20.10;;;3.00;99.90;;;;;;5083767;28;20059;-73
2020/12/02 06:03:18;;;;;;;36.78;20.40;;;3.00;99.90;;;;;;5067622;28;20052;-74
2020/12/02 06:05:45;;;;;;;38.85;19.98;;;3.20;99.90;;;;;;5072136;28;20152;-74
2020/12/02 06:08:32;;;;;;;32.13;19.48;;;3.10;99.90;;;;;;5066168;28;20040;-74
2020/12/02 06:11:17;;;;;;;29.42;18.10;;;3.10;99.90;;;;;;5079481;28;20040;-74
2020/12/02 06:13:51;;;;;;;35.05;18.42;;;2.90;99.90;;;;;;5078634;28;20706;-74
2020/12/02 06:16:38;;;;;;;32.27;16.93;;;3.00;99.90;;;;;;5085863;28;20052;-74
2020/12/02 06:19:39;;;;;;;30.50;16.67;;;3.00;99.90;;;;;;5083932;28;20847;-74
2020/12/02 06:22:07;;;;;;;40.47;22.13;;;3.00;99.90;;;;;;5081388;28;20062;-74
2020/12/02 06:24:38;;;;;;;36.03;19.23;;;3.00;99.90;;;;;;5088079;28;20044;-74
2020/12/02 06:27:17;;;;;;;30.50;17.58;;;2.90;99.90;;;;;;5061952;28;20068;-74
2020/12/02 06:30:17;;;;;;;29.52;16.55;;;2.80;99.90;;;;;;5085821;28;20052;-73
2020/12/02 06:33:13;;;;;;;29.08;18.55;;;2.80;99.90;;;;;;5078426;28;20048;-74
2020/12/02 06:35:39;;;;;;;27.52;15.57;;;2.70;99.90;;;;;;5080003;28;20056;-74
2020/12/02 06:38:13;;;;;;;29.30;15.73;;;2.70;99.90;;;;;;5080589;28;20074;-73
2020/12/02 06:40:59;;;;;;;31.27;15.60;;;2.80;99.90;;;;;;5082769;28;20064;-74
2020/12/02 06:43:29;;;;;;;25.92;15.27;;;2.80;99.90;;;;;;5066663;28;20138;-74
2020/12/02 06:46:01;;;;;;;29.02;14.57;;;2.70;99.90;;;;;;5075458;28;20638;-73
2020/12/02 06:48:35;;;;;;;35.92;17.38;;;2.70;99.90;;;;;;5084312;28;20048;-74
2020/12/02 06:51:06;;;;;;;35.70;17.33;;;2.80;99.90;;;;;;5084427;28;20059;-74
2020/12/02 06:53:33;;;;;;;33.08;15.80;;;2.80;99.90;;;;;;5084741;28;20146;-74
2020/12/02 06:56:01;;;;;;;35.72;16.77;;;2.80;99.90;;;;;;5068114;28;20048;-74
2020/12/02 06:58:28;;;;;;;31.98;16.90;;;2.80;99.90;;;;;;5085348;28;20539;-74
2020/12/02 07:01:03;;;;;;;34.33;17.15;;;2.80;99.90;;;;;;5079750;28;20063;-75
2020/12/02 07:03:35;;;;;;;34.80;17.35;;;2.70;99.90;;;;;;5083070;28;20044;-75
2020/12/02 07:06:25;;;;;;;31.88;17.45;;;2.70;99.90;;;;;;5080494;28;20051;-73
2020/12/02 07:09:12;;;;;;;34.83;16.60;;;2.80;99.90;;;;;;5081082;28;20618;-75
2020/12/02 07:11:48;;;;;;;34.88;17.80;;;2.70;99.90;;;;;;5065373;28;20041;-75
2020/12/02 07:14:20;;;;;;;37.88;20.13;;;2.80;99.90;;;;;;5065582;28;20063;-75
2020/12/02 07:16:47;;;;;;;31.45;16.75;;;2.80;99.90;;;;;;5083224;28;20123;-74
2020/12/02 07:19:15;;;;;;;27.77;15.50;;;2.80;99.90;;;;;;5083991;28;20062;-74
2020/12/02 07:21:50;;;;;;;27.08;15.23;;;2.70;99.90;;;;;;5082155;28;20651;-73
2020/12/02 07:24:25;;;;;;;26.30;14.52;;;2.70;99.90;;;;;;5084475;28;20048;-74
2020/12/02 07:26:52;;;;;;;31.80;15.25;;;2.70;99.90;;;;;;5084421;28;20082;-74
2020/12/02 07:29:22;;;;;;;28.65;14.70;;;2.70;99.90;;;;;;5050666;28;20046;-73
2020/12/02 07:31:58;;;;;;;30.08;14.82;;;2.70;99.90;;;;;;5079017;28;20080;-73
2020/12/02 07:34:25;;;;;;;31.05;16.38;;;2.80;99.90;;;;;;5081329;28;20125;-74
2020/12/02 07:37:04;;;;;;;32.00;16.17;;;2.70;99.90;;;;;;5079315;28;20039;-74
2020/12/02 07:39:31;;;;;;;34.22;16.55;;;2.80;99.90;;;;;;5079163;28;20051;-73
2020/12/02 07:42:04;;;;;;;32.17;16.48;;;2.90;99.90;;;;;;5083613;28;20044;-74
2020/12/02 07:44:35;;;;;;;34.45;17.02;;;2.80;99.90;;;;;;5085160;28;20123;-74
2020/12/02 07:47:07;;;;;;;33.47;15.50;;;2.80;99.90;;;;;;5080767;28;20044;-73
2020/12/02 07:49:36;;;;;;;54.92;25.55;;;2.80;99.90;;;;;;5084033;28;20056;-74
2020/12/02 07:52:13;;;;;;;37.53;17.05;;;2.80;99.90;;;;;;5065633;28;20591;-74
2020/12/02 07:54:39;;;;;;;39.63;19.23;;;2.80;99.90;;;;;;5084213;28;20048;-73
2020/12/02 07:57:10;;;;;;;48.55;22.85;;;2.80;99.90;;;;;;5080820;28;20386;-73
2020/12/02 07:59:47;;;;;;;43.58;20.63;;;2.90;99.90;;;;;;5049272;28;20051;-75
2020/12/02 08:02:18;;;;;;;39.97;20.75;;;2.90;99.90;;;;;;5078902;28;20046;-75
2020/12/02 08:04:58;;;;;;;42.17;19.25;;;2.80;99.90;;;;;;5057935;28;20040;-75
2020/12/02 08:07:45;;;;;;;46.85;21.30;;;2.80;99.90;;;;;;5057353;28;20525;-74
2020/12/02 08:10:23;;;;;;;44.58;19.02;;;2.80;99.90;;;;;;5079347;28;20432;-74
2020/12/02 08:12:50;;;;;;;47.20;19.85;;;2.80;99.90;;;;;;5078137;28;20416;-74
2020/12/02 08:15:16;;;;;;;46.92;21.40;;;2.80;99.90;;;;;;5082681;28;20142;-74
2020/12/02 08:18:00;;;;;;;42.60;19.25;;;2.80;99.90;;;;;;5079112;28;20051;-73
2020/12/02 08:20:31;;;;;;;36.42;18.25;;;2.80;99.90;;;;;;5080225;28;20049;-74
2020/12/02 08:23:05;;;;;;;44.55;20.55;;;2.80;99.90;;;;;;5075424;28;20048;-73
2020/12/02 08:25:37;;;;;;;35.50;17.05;;;2.80;99.90;;;;;;5083225;28;20036;-74
2020/12/02 08:28:17;;;;;;;49.58;19.85;;;2.80;99.90;;;;;;5081045;28;20048;-73
2020/12/02 08:30:44;;;;;;;44.50;18.98;;;2.80;99.90;;;;;;5081491;28;20056;-75
2020/12/02 08:33:15;;;;;;;32.42;16.63;;;2.70;99.90;;;;;;5076856;28;20679;-75
2020/12/02 08:35:48;;;;;;;39.55;17.55;;;2.80;99.90;;;;;;5081377;28;20135;-73
2020/12/02 08:38:29;;;;;;;34.10;16.73;;;2.80;99.90;;;;;;5061718;28;20079;-76
2020/12/02 08:40:59;;;;;;;39.47;16.17;;;2.90;99.90;;;;;;5047798;28;20090;-77
2020/12/02 08:43:32;;;;;;;43.17;18.98;;;2.90;99.90;;;;;;5047147;28;20058;-76
2020/12/02 08:46:07;;;;;;;48.30;19.40;;;2.90;99.90;;;;;;5068133;28;20516;-76
2020/12/02 08:48:35;;;;;;;42.85;19.70;;;2.90;99.90;;;;;;5062670;28;20080;-76
2020/12/02 08:51:02;;;;;;;40.47;19.40;;;3.10;99.90;;;;;;5070407;28;20062;-76
2020/12/02 08:53:31;;;;;;;41.95;18.92;;;3.00;99.90;;;;;;5079784;28;20063;-76
2020/12/02 08:55:58;;;;;;;44.08;18.75;;;2.80;99.90;;;;;;5073981;28;20528;-77
2020/12/02 08:58:25;;;;;;;45.25;19.40;;;2.90;99.90;;;;;;5082854;28;20055;-76
2020/12/02 09:00:52;;;;;;;42.00;18.02;;;2.90;99.90;;;;;;5049146;28;20048;-77
2020/12/02 09:03:21;;;;;;;40.10;16.15;;;2.80;99.90;;;;;;5065459;28;20496;-78
2020/12/02 09:05:48;;;;;;;46.55;19.80;;;2.90;99.90;;;;;;5078734;28;20520;-77
2020/12/02 09:08:15;;;;;;;42.25;17.20;;;2.80;99.90;;;;;;5082423;28;20160;-76
2020/12/02 09:10:41;;;;;;;48.97;19.92;;;2.80;99.90;;;;;;5048787;28;20147;-75
2020/12/02 09:13:08;;;;;;;57.58;21.00;;;2.80;99.90;;;;;;5075406;28;20058;-75
2020/12/02 09:15:34;;;;;;;56.63;21.15;;;2.90;99.90;;;;;;5047198;28;20498;-75
2020/12/02 09:18:00;;;;;;;52.20;18.75;;;2.90;99.90;;;;;;5061234;28;20060;-76
2020/12/02 09:20:27;;;;;;;48.70;20.38;;;3.00;99.90;;;;;;5091142;28;20724;-77
2020/12/02 09:22:54;;;;;;;51.95;20.02;;;3.00;99.90;;;;;;5079235;28;20054;-75
2020/12/02 09:25:20;;;;;;;55.95;21.02;;;2.90;99.90;;;;;;5045659;28;20044;-76
2020/12/02 09:27:46;;;;;;;63.60;20.58;;;2.90;99.90;;;;;;5066229;28;20131;-75
2020/12/02 09:30:13;;;;;;;58.78;20.67;;;2.70;99.90;;;;;;5085120;28;20098;-76
2020/12/02 09:32:39;;;;;;;41.10;17.52;;;2.80;99.90;;;;;;5081191;28;20052;-75
2020/12/02 09:35:07;;;;;;;48.40;22.17;;;2.70;99.90;;;;;;5088075;28;20048;-75
2020/12/02 09:37:35;;;;;;;39.90;21.45;;;2.70;99.90;;;;;;5073067;28;20438;-75
2020/12/02 09:40:05;;;;;;;32.20;17.90;;;2.60;99.90;;;;;;5068746;28;20036;-76
2020/12/02 09:42:50;;;;;;;41.22;20.40;;;2.70;99.90;;;;;;5086700;28;20138;-76
2020/12/02 09:45:50;;;;;;;31.02;17.83;;;2.70;99.90;;;;;;5077228;28;20138;-76
2020/12/02 09:48:23;;;;;;;22.92;14.57;;;2.70;99.90;;;;;;5079666;28;20135;-77
2020/12/02 09:50:51;;;;;;;34.97;19.38;;;2.70;99.90;;;;;;5080146;28;20052;-75
2020/12/02 09:53:20;;;;;;;31.40;18.83;;;2.70;99.90;;;;;;5084288;28;20404;-76
2020/12/02 09:55:48;;;;;;;34.80;19.00;;;2.80;99.90;;;;;;5081351;28;20749;-76
2020/12/02 09:58:16;;;;;;;45.92;22.88;;;2.80;99.90;;;;;;5086465;28;20138;-76
2020/12/02 10:00:42;;;;;;;36.25;20.42;;;2.80;99.90;;;;;;5082597;28;20032;-77
2020/12/02 10:03:11;;;;;;;42.28;20.77;;;2.90;99.90;;;;;;5085121;28;20082;-75
2020/12/02 10:06:15;;;;;;;36.90;20.02;;;2.90;99.90;;;;;;5087278;28;20121;-77
2020/12/02 10:09:08;;;;;;;40.53;22.52;;;2.90;99.90;;;;;;5060393;28;20477;-76
2020/12/02 10:12:05;;;;;;;38.95;21.95;;;2.90;99.90;;;;;;5054224;28;20054;-77
2020/12/02 10:15:13;;;;;;;42.67;21.25;;;2.90;99.90;;;;;;5069302;28;20087;-76
2020/12/02 10:17:52;;;;;;;42.40;22.95;;;2.90;99.90;;;;;;5078603;28;20068;-76
2020/12/02 10:20:38;;;;;;;43.45;23.00;;;3.00;99.90;;;;;;5044758;28;20040;-76
2020/12/02 10:23:33;;;;;;;43.95;23.45;;;3.10;99.90;;;;;;5082352;28;20044;-76
2020/12/02 10:26:26;;;;;;;39.60;24.15;;;3.00;99.90;;;;;;5085975;28;20144;-74
2020/12/02 10:29:01;;;;;;;36.08;21.75;;;3.00;99.90;;;;;;5068515;28;20043;-75
2020/12/02 10:31:36;;;;;;;39.55;22.80;;;3.00;99.90;;;;;;5084316;28;20051;-76
2020/12/02 10:34:20;;;;;;;;;;;3.00;99.90;;;;;;5086152;28;20044;-76
2020/12/02 10:36:52;;;;;;;39.63;22.10;;;3.10;99.90;;;;;;5079692;28;19928;-75
2020/12/02 10:39:23;;;;;;;34.92;20.95;;;3.10;99.90;;;;;;5086085;28;20059;-76
2020/12/02 10:42:02;;;;;;;33.00;21.05;;;3.00;99.90;;;;;;5066561;28;20071;-76
2020/12/02 10:44:44;;;;;;;42.30;24.92;;;3.00;99.90;;;;;;5085086;28;20127;-77
2020/12/02 10:47:35;;;;;;;37.78;23.25;;;3.00;99.90;;;;;;5079246;28;20424;-75
2020/12/02 10:50:04;;;;;;;32.55;21.35;;;3.00;99.90;;;;;;5047331;28;20649;-76
2020/12/02 10:52:31;;;;;;;32.05;21.42;;;3.00;99.90;;;;;;5081357;28;20062;-75
2020/12/02 10:54:57;;;;;;;34.42;22.50;;;3.00;99.90;;;;;;5082543;28;20044;-77
2020/12/02 10:57:25;;;;;;;33.80;23.48;;;2.90;99.90;;;;;;5083780;28;20055;-76
2020/12/02 10:59:56;;;;;;;35.15;22.73;;;2.90;99.90;;;;;;5060172;28;20045;-76
2020/12/02 11:02:29;;;;;;;35.40;22.13;;;3.00;99.90;;;;;;5060054;28;20044;-75
2020/12/02 11:04:57;;;;;;;32.85;20.73;;;3.10;99.90;;;;;;5070512;28;20104;-76
2020/12/02 11:07:55;;;;;;;31.40;21.73;;;3.20;99.90;;;;;;5045706;28;20047;-75
2020/12/02 11:10:41;;;;;;;28.63;19.77;;;3.10;99.90;;;;;;5078200;28;20052;-76
2020/12/02 11:13:40;;;;;;;30.00;19.60;;;3.00;99.90;;;;;;5052238;28;20063;-76
2020/12/02 11:16:18;;;;;;;27.90;20.15;;;2.90;99.90;;;;;;5063231;28;20040;-75
2020/12/02 11:18:57;;;;;;;36.45;23.60;;;2.90;99.90;;;;;;5044207;28;20048;-75
2020/12/02 11:21:33;;;;;;;28.83;18.58;;;2.90;99.90;;;;;;5066835;28;20048;-75
2020/12/02 11:24:11;;;;;;;32.25;22.15;;;2.90;99.90;;;;;;5085240;28;20642;-77
2020/12/02 11:26:39;;;;;;;34.83;24.52;;;2.80;99.90;;;;;;5063361;28;20045;-76
2020/12/02 11:29:10;;;;;;;31.80;22.65;;;2.90;99.90;;;;;;5083181;28;20186;-77
2020/12/02 11:32:05;;;;;;;31.33;21.38;;;2.90;99.90;;;;;;5062525;28;20048;-75
2020/12/02 11:35:02;;;;;;;47.65;29.42;;;2.90;99.90;;;;;;5065035;28;20048;-74
2020/12/02 11:37:37;;;;;;;41.30;27.17;;;2.90;99.90;;;;;;5083909;28;20055;-76
2020/12/02 11:40:13;;;;;;;31.80;22.55;;;3.00;99.90;;;;;;5085240;28;20044;-76
2020/12/02 11:42:51;;;;;;;25.67;18.15;;;3.00;99.90;;;;;;5067227;28;20052;-76
2020/12/02 11:45:31;;;;;;;20.25;16.35;;;2.90;99.90;;;;;;5084330;28;20137;-75
2020/12/02 11:48:36;;;;;;;25.77;18.08;;;2.90;99.90;;;;;;5064716;28;20508;-75
2020/12/02 11:51:37;;;;;;;29.55;21.45;;;2.90;99.90;;;;;;5085558;28;20048;-76
2020/12/02 11:54:10;;;;;;;26.20;19.67;;;2.90;99.90;;;;;;5069675;28;20629;-75
2020/12/02 11:56:41;;;;;;;30.02;21.17;;;2.80;99.90;;;;;;5067527;28;20534;-75
2020/12/02 11:59:11;;;;;;;31.50;20.80;;;2.80;99.90;;;;;;5084435;28;20062;-75
2020/12/02 12:01:52;;;;;;;34.08;22.95;;;2.80;99.90;;;;;;5078743;28;20411;-75
2020/12/02 12:04:30;;;;;;;38.45;23.40;;;2.90;99.90;;;;;;5083248;28;20036;-75
2020/12/02 12:07:19;;;;;;;31.52;21.35;;;2.80;99.90;;;;;;5074341;28;20036;-75
2020/12/02 12:10:18;;;;;;;31.85;22.00;;;2.80;99.90;;;;;;5076070;28;20131;-75
2020/12/02 12:12:56;;;;;;;32.25;22.48;;;2.80;99.90;;;;;;5075636;28;20688;-76
2020/12/02 12:15:44;;;;;;;32.03;22.85;;;2.70;99.90;;;;;;5074400;28;20131;-75
2020/12/02 12:18:38;;;;;;;27.40;20.50;;;2.80;99.90;;;;;;5081589;28;20040;-76
2020/12/02 12:21:32;;;;;;;34.20;23.60;;;2.80;99.90;;;;;;5057636;28;20028;-76
2020/12/02 12:24:00;;;;;;;33.10;22.35;;;2.80;99.90;;;;;;5064537;28;20067;-75
2020/12/02 12:26:33;;;;;;;34.38;22.52;;;2.80;99.90;;;;;;5067055;28;20062;-76
2020/12/02 12:29:01;;;;;;;27.40;20.98;;;2.80;99.90;;;;;;5067250;28;20413;-75
2020/12/02 12:32:03;;;;;;;34.20;21.60;;;2.70;99.90;;;;;;5078461;28;20051;-75
2020/12/02 12:34:56;;;;;;;28.15;21.95;;;2.80;99.90;;;;;;5083238;28;20056;-75
2020/12/02 12:38:00;;;;;;;34.13;22.77;;;2.80;99.90;;;;;;5077808;28;20044;-75
2020/12/02 12:40:32;;;;;;;31.88;22.48;;;2.80;99.90;;;;;;5061773;28;20084;-76
2020/12/02 12:42:59;;;;;;;30.40;22.25;;;2.70;99.90;;;;;;5045283;28;20037;-74
2020/12/02 12:46:04;;;;;;;29.38;22.02;;;2.70;99.90;;;;;;5047254;28;20044;-75
2020/12/02 12:48:31;;;;;;;32.33;22.63;;;2.60;99.90;;;;;;5074315;28;20139;-74
2020/12/02 12:51:02;;;;;;;33.83;21.33;;;2.50;99.90;;;;;;5090409;28;20135;-75
2020/12/02 12:53:28;;;;;;;33.90;22.35;;;2.60;99.90;;;;;;5076580;28;20350;-74
2020/12/02 12:55:57;;;;;;;35.13;23.83;;;2.70;99.90;;;;;;5083456;28;20071;-76
2020/12/02 12:58:28;;;;;;;35.78;23.08;;;2.70;99.90;;;;;;5084896;28;20056;-75
2020/12/02 13:00:55;;;;;;;38.53;23.58;;;2.50;99.90;;;;;;5081281;28;20068;-74
2020/12/02 13:03:24;;;;;;;38.75;23.27;;;2.50;99.90;;;;;;5059019;28;20032;-75
2020/12/02 13:06:11;;;;;;;42.08;24.10;;;2.40;99.90;;;;;;5084974;28;20067;-75
2020/12/02 13:08:42;;;;;;;41.22;24.27;;;2.50;99.90;;;;;;5057192;28;20492;-75
2020/12/02 13:11:21;;;;;;;39.95;22.65;;;2.50;99.90;;;;;;5055363;28;20052;-74